Time;durP1;ratioP1;P1;durP2;ratioP2;P2;SDS_P1;SDS_P2;PMS_P1;PMS_P2;Temp;Humidity;BMP_temperature;BMP_pressure;BME280_temperature;BME280_humidity;BME280_pressure;Samples;Min_cycle;Max_cycle;Signal;HPM_P1;HPM_P2
2022/12/20 00:01:52;;;;;;;;;0.00;0.00;;;;;17.56;37.45;100360.72;5038638;28;45562;-77
2022/12/20 00:04:18;;;;;;;;;1.00;0.00;;;;;17.60;37.55;100367.75;5042031;28;45560;-75
2022/12/20 00:06:43;;;;;;;;;0.00;0.00;;;;;17.52;37.62;100366.91;5039817;28;45476;-74
2022/12/20 00:09:10;;;;;;;;;0.00;0.00;;;;;17.63;37.25;100363.34;5037834;28;45863;-75
2022/12/20 00:11:39;;;;;;;;;0.00;0.00;;;;;17.59;37.51;100366.03;5039429;28;45442;-74
2022/12/20 00:14:07;;;;;;;;;0.00;0.00;;;;;17.55;37.69;100336.09;5038950;28;45497;-76
2022/12/20 00:16:34;;;;;;;;;0.67;0.00;;;;;17.61;37.47;100336.06;5038205;28;45406;-72
2022/12/20 00:19:02;;;;;;;;;1.00;1.00;;;;;17.64;37.62;100343.97;5039936;28;45544;-75
2022/12/20 00:21:30;;;;;;;;;0.00;0.00;;;;;17.56;37.84;100358.09;5037459;28;45354;-75
2022/12/20 00:23:56;;;;;;;;;0.00;0.00;;;;;17.49;38.27;100362.50;5039988;28;45441;-75
2022/12/20 00:26:24;;;;;;;;;0.67;0.67;;;;;17.47;38.36;100382.75;5038756;28;45647;-74
2022/12/20 00:28:50;;;;;;;;;0.00;0.00;;;;;17.39;38.63;100395.06;5040314;28;46241;-75
2022/12/20 00:31:20;;;;;;;;;0.33;0.33;;;;;17.35;38.76;100378.38;5036121;28;45430;-73
2022/12/20 00:33:48;;;;;;;;;0.00;0.00;;;;;17.45;38.49;100395.09;5040060;28;45537;-75
2022/12/20 00:36:15;;;;;;;;;0.00;0.00;;;;;17.37;38.79;100399.47;5037386;28;45521;-75
2022/12/20 00:38:44;;;;;;;;;0.00;0.00;;;;;17.22;38.93;100388.03;5037650;28;46209;-68
2022/12/20 00:41:12;;;;;;;;;0.00;0.00;;;;;17.33;39.04;100409.16;5037748;28;45540;-75
2022/12/20 00:43:39;;;;;;;;;0.00;0.00;;;;;17.32;39.17;100417.09;5051725;28;45337;-74
2022/12/20 00:46:06;;;;;;;;;2.00;1.00;;;;;17.32;39.28;100417.94;5053745;28;45443;-76
2022/12/20 00:48:33;;;;;;;;;0.67;0.67;;;;;17.33;39.19;100395.06;5051035;28;46109;-74
2022/12/20 00:51:03;;;;;;;;;0.00;0.00;;;;;17.36;39.18;100368.66;5045167;28;45339;-76
2022/12/20 00:53:29;;;;;;;;;1.00;1.00;;;;;17.28;39.37;100360.75;5044390;28;45282;-75
2022/12/20 00:55:55;;;;;;;;;1.00;0.00;;;;;17.34;39.55;100344.91;5049300;28;45453;-75
2022/12/20 00:58:21;;;;;;;;;0.00;0.00;;;;;17.31;39.60;100366.03;5047197;28;46121;-75
2022/12/20 01:00:47;;;;;;;;;0.33;0.00;;;;;17.36;39.53;100329.94;5052832;28;45426;-75
2022/12/20 01:03:13;;;;;;;;;1.00;1.00;;;;;17.32;39.48;100320.25;5051665;28;45464;-70
2022/12/20 01:05:38;;;;;;;;;0.00;0.00;;;;;17.33;39.33;100322.03;5052448;28;45231;-76
2022/12/20 01:08:05;;;;;;;;;1.00;1.00;;;;;17.11;39.51;100257.84;5045295;28;46160;-75
2022/12/20 01:10:31;;;;;;;;;1.00;0.00;;;;;17.33;39.41;100289.44;5052609;28;45579;-75
2022/12/20 01:12:57;;;;;;;;;1.00;1.00;;;;;17.33;39.56;100297.38;5045656;28;45578;-75
2022/12/20 01:15:22;;;;;;;;;1.67;1.00;;;;;17.33;39.69;100305.28;5047109;28;45512;-75
2022/12/20 01:17:48;;;;;;;;;0.00;0.00;;;;;17.32;39.77;100303.56;5052066;28;45886;-75
2022/12/20 01:20:14;;;;;;;;;1.00;1.00;;;;;17.21;39.75;100278.06;5048179;28;45481;-75
2022/12/20 01:22:40;;;;;;;;;0.67;0.67;;;;;17.30;39.94;100290.34;5049193;28;45437;-75
2022/12/20 01:25:06;;;;;;;;;0.00;0.00;;;;;17.32;39.82;100277.16;5053556;28;45486;-75
2022/12/20 01:27:32;;;;;;;;;1.00;0.00;;;;;17.40;39.48;100276.25;5046488;28;45699;-75
2022/12/20 01:29:57;;;;;;;;;0.00;0.00;;;;;17.36;39.65;100265.69;5049517;28;45442;-75
2022/12/20 01:32:23;;;;;;;;;1.00;0.67;;;;;17.24;39.73;100249.00;5049810;28;45495;-75
2022/12/20 01:34:49;;;;;;;;;1.00;1.00;;;;;17.24;39.94;100248.13;5054456;28;45579;-75
2022/12/20 01:37:16;;;;;;;;;0.00;0.00;;;;;17.40;39.48;100238.41;5045931;28;45991;-73
2022/12/20 01:39:42;;;;;;;;;1.00;1.00;;;;;17.43;39.40;100270.09;5051545;28;45480;-75
2022/12/20 01:42:13;;;;;;;;;1.00;1.00;;;;;17.37;39.60;100278.91;5049968;28;45455;-76
2022/12/20 01:44:41;;;;;;;;;0.33;0.33;;;;;17.35;39.72;100278.03;5053095;28;45540;-75
2022/12/20 01:47:07;;;;;;;;;1.00;0.00;;;;;17.35;39.69;100263.94;5049016;28;46097;-75
2022/12/20 01:49:45;;;;;;;;;0.33;0.33;;;;;17.36;39.51;100284.19;5051510;28;45460;-75
2022/12/20 01:52:31;;;;;;;;;0.00;0.00;;;;;17.30;39.54;100298.25;5052171;28;45289;-75
2022/12/20 01:55:06;;;;;;;;;0.00;0.00;;;;;17.33;39.76;100297.38;5051852;28;45498;-76
2022/12/20 01:57:44;;;;;;;;;0.00;0.00;;;;;17.33;39.81;100322.03;5044104;28;45524;-75
2022/12/20 02:00:11;;;;;;;;;0.67;0.67;;;;;17.39;39.39;100321.13;5050041;28;45554;-76
2022/12/20 02:02:37;;;;;;;;;1.00;1.00;;;;;17.44;39.61;100314.97;5050058;28;45509;-75
2022/12/20 02:05:03;;;;;;;;;1.00;1.00;;;;;17.44;39.39;100309.69;5045637;28;45537;-74
2022/12/20 02:07:34;;;;;;;;;0.33;0.33;;;;;17.36;39.68;100321.16;5050633;28;46141;-69
2022/12/20 02:10:01;;;;;;;;;0.33;0.33;;;;;17.40;39.51;100323.78;5048460;28;45477;-75
2022/12/20 02:12:43;;;;;;;;;1.00;1.00;;;;;17.35;39.94;100325.56;5046119;28;45346;-75
2022/12/20 02:15:33;;;;;;;;;1.00;1.00;;;;;17.33;39.95;100311.47;5047523;28;45256;-75
2022/12/20 02:18:21;;;;;;;;;0.00;0.00;;;;;17.32;39.81;100317.63;5048001;28;45568;-75
2022/12/20 02:21:11;;;;;;;;;0.00;0.00;;;;;17.33;39.84;100318.50;5043802;28;45499;-73
2022/12/20 02:23:49;;;;;;;;;1.00;1.00;;;;;17.30;40.09;100311.47;5043904;28;45398;-75
2022/12/20 02:26:30;;;;;;;;;0.67;0.67;;;;;17.27;40.30;100314.13;5055541;28;45370;-74
2022/12/20 02:29:21;;;;;;;;;1.67;1.67;;;;;17.22;40.26;100314.13;5048061;28;45473;-74
2022/12/20 02:32:11;;;;;;;;;1.00;1.00;;;;;17.18;40.33;100309.72;5046985;28;45465;-67
2022/12/20 02:34:40;;;;;;;;;0.00;0.00;;;;;17.20;40.34;100305.31;5050528;28;46451;-75
2022/12/20 02:37:05;;;;;;;;;0.00;0.00;;;;;17.23;40.25;100300.03;5049322;28;45635;-75
2022/12/20 02:39:34;;;;;;;;;2.00;1.00;;;;;17.25;40.18;100305.34;5045602;28;46011;-74
2022/12/20 02:42:07;;;;;;;;;2.00;2.00;;;;;17.27;40.30;100303.56;5048652;28;45430;-75
2022/12/20 02:47:32;;;;;;;;;1.00;1.00;;;;;17.28;40.46;100307.94;5049337;28;45294;-75
2022/12/20 02:49:59;;;;;;;;;1.00;1.00;;;;;17.29;40.31;100307.97;5045549;28;45519;-75
2022/12/20 02:52:29;;;;;;;;;1.00;1.00;;;;;17.19;40.38;100295.66;5051376;28;45381;-74
2022/12/20 02:54:56;;;;;;;;;0.00;0.00;;;;;17.28;40.50;100286.84;5049652;28;45601;-74
2022/12/20 02:57:31;;;;;;;;;1.00;1.00;;;;;17.18;40.33;100282.44;5048816;28;45551;-75
2022/12/20 03:00:11;;;;;;;;;1.00;1.00;;;;;17.22;40.55;100297.41;5047313;28;45955;-75
2022/12/20 03:05:24;;;;;;;;;1.33;1.00;;;;;17.23;40.35;100296.50;5049840;28;45547;-75
2022/12/20 03:07:50;;;;;;;;;1.00;1.00;;;;;17.26;40.17;100276.25;5048664;28;45562;-74
2022/12/20 03:10:17;;;;;;;;;1.00;1.00;;;;;17.29;40.30;100278.91;5048066;28;45358;-75
2022/12/20 03:12:42;;;;;;;;;1.00;1.00;;;;;17.19;39.94;100224.38;5046255;28;45547;-73
2022/12/20 03:15:08;;;;;;;;;1.33;1.00;;;;;17.32;40.01;100256.91;5048258;28;45523;-74
2022/12/20 03:17:34;;;;;;;;;1.00;1.00;;;;;17.38;39.70;100243.69;5047877;28;45520;-74
2022/12/20 03:20:00;;;;;;;;;0.00;0.00;;;;;17.36;39.89;100247.22;5038264;28;45563;-75
2022/12/20 03:22:26;;;;;;;;;0.33;0.33;;;;;17.39;40.06;100247.19;5046159;28;45316;-74
2022/12/20 03:24:52;;;;;;;;;2.00;1.00;;;;;17.38;39.73;100214.63;5040670;28;45496;-74
2022/12/20 03:27:17;;;;;;;;;1.00;1.00;;;;;17.41;39.65;100230.47;5049398;28;45171;-75
2022/12/20 03:29:44;;;;;;;;;0.00;0.00;;;;;17.42;39.63;100219.03;5047543;28;45463;-75
2022/12/20 03:32:11;;;;;;;;;0.00;0.00;;;;;17.35;39.98;100211.13;5043474;28;45297;-74
2022/12/20 03:34:37;;;;;;;;;0.00;0.00;;;;;17.35;39.95;100209.38;5049741;28;45530;-74
2022/12/20 03:37:02;;;;;;;;;1.00;1.00;;;;;17.40;39.92;100201.44;5047872;28;45534;-74
2022/12/20 03:39:28;;;;;;;;;1.00;0.00;;;;;17.38;39.91;100226.97;5044616;28;45475;-75
2022/12/20 03:41:53;;;;;;;;;1.00;1.00;;;;;17.37;40.29;100206.72;5048053;28;45542;-74
2022/12/20 03:44:19;;;;;;;;;1.00;1.00;;;;;17.30;40.33;100201.47;5043978;28;45495;-75
2022/12/20 03:46:45;;;;;;;;;1.00;1.00;;;;;17.10;40.42;100163.69;5043446;28;45438;-75
2022/12/20 03:49:10;;;;;;;;;1.00;1.00;;;;;17.37;40.14;100189.13;5043344;28;45460;-75
2022/12/20 03:51:36;;;;;;;;;1.67;1.67;;;;;17.36;40.41;100183.84;5051250;28;45546;-75
2022/12/20 03:54:01;;;;;;;;;0.33;0.33;;;;;17.36;40.35;100194.41;5043349;28;45472;-74
2022/12/20 03:56:27;;;;;;;;;0.00;0.00;;;;;17.34;40.43;100186.50;5047052;28;45756;-74
2022/12/20 03:58:54;;;;;;;;;1.00;1.00;;;;;17.38;40.22;100192.66;5049130;28;45569;-73
2022/12/20 04:01:25;;;;;;;;;1.00;1.00;;;;;17.34;40.28;100206.75;5051212;28;45267;-74
2022/12/20 04:03:51;;;;;;;;;0.00;0.00;;;;;17.38;40.29;100182.09;5052298;28;45514;-75
2022/12/20 04:06:18;;;;;;;;;1.00;0.00;;;;;17.37;40.41;100193.50;5044372;28;45314;-75
2022/12/20 04:08:43;;;;;;;;;1.00;1.00;;;;;17.36;40.75;100215.53;5050840;28;45426;-75
2022/12/20 04:11:15;;;;;;;;;1.67;1.00;;;;;17.28;40.67;100195.31;5044752;28;45406;-75
2022/12/20 04:13:45;;;;;;;;;1.00;1.00;;;;;17.27;40.82;100164.53;5046816;28;45306;-75
2022/12/20 04:16:12;;;;;;;;;1.00;1.00;;;;;17.13;40.61;100145.22;5054989;28;46427;-75
2022/12/20 04:18:37;;;;;;;;;0.33;0.00;;;;;17.22;41.17;100163.66;5051095;28;46124;-75
2022/12/20 04:21:03;;;;;;;;;1.00;1.00;;;;;17.19;41.18;100136.38;5039874;28;45499;-75
2022/12/20 04:23:29;;;;;;;;;1.00;1.00;;;;;17.18;41.25;100164.53;5040058;28;45354;-75
2022/12/20 04:25:55;;;;;;;;;1.00;1.00;;;;;17.22;40.56;100131.97;5052173;28;45420;-74
2022/12/20 04:28:20;;;;;;;;;1.00;1.00;;;;;17.28;40.91;100147.78;5060413;28;45981;-75
2022/12/20 04:30:46;;;;;;;;;1.00;1.00;;;;;17.28;40.88;100133.72;5060195;28;45515;-75
2022/12/20 04:33:11;;;;;;;;;1.33;1.33;;;;;17.29;40.89;100136.34;5059808;28;45475;-75
2022/12/20 04:35:37;;;;;;;;;1.00;0.67;;;;;17.32;40.89;100118.75;5060698;28;45596;-75
2022/12/20 04:38:03;;;;;;;;;1.00;1.00;;;;;17.13;40.81;100091.53;5059069;28;45322;-75
2022/12/20 04:40:29;;;;;;;;;1.00;1.00;;;;;17.27;40.90;100124.06;5059919;28;45453;-75
2022/12/20 04:42:55;;;;;;;;;1.00;1.00;;;;;17.27;40.95;100153.09;5059543;28;45310;-69
2022/12/20 04:45:21;;;;;;;;;0.00;0.00;;;;;17.09;41.25;100127.63;5060730;28;45512;-75
2022/12/20 04:47:46;;;;;;;;;0.33;0.33;;;;;17.23;41.10;100152.22;5059714;28;45444;-75
2022/12/20 04:50:12;;;;;;;;;0.67;0.00;;;;;17.22;40.99;100175.97;5059749;28;45386;-75
2022/12/20 04:55:21;;;;;;;;;1.00;1.00;;;;;17.30;40.79;100164.50;5060096;28;45429;-75
2022/12/20 04:57:47;;;;;;;;;0.67;0.67;;;;;17.24;40.84;100163.66;5058537;28;46503;-76
2022/12/20 05:00:14;;;;;;;;;2.00;1.00;;;;;17.23;40.87;100151.31;5053018;28;45383;-76
2022/12/20 05:02:40;;;;;;;;;1.00;1.00;;;;;17.24;40.89;100147.81;5039160;28;45427;-75
2022/12/20 05:05:06;;;;;;;;;1.00;1.00;;;;;17.28;40.82;100152.19;5040191;28;45325;-76
2022/12/20 05:07:31;;;;;;;;;1.00;1.00;;;;;17.32;40.32;100155.72;5040417;28;46218;-75
2022/12/20 05:09:57;;;;;;;;;0.00;0.00;;;;;17.34;40.07;100149.53;5059136;28;45460;-75
2022/12/20 05:12:22;;;;;;;;;1.00;1.00;;;;;17.36;39.98;100152.16;5059199;28;45389;-76
2022/12/20 05:14:48;;;;;;;;;1.00;1.00;;;;;17.34;40.12;100148.66;5059591;28;45397;-76
2022/12/20 05:17:13;;;;;;;;;1.00;1.00;;;;;17.32;40.18;100156.56;5042611;28;46132;-67
2022/12/20 05:19:39;;;;;;;;;1.00;1.00;;;;;17.30;40.33;100159.22;5059039;28;45488;-74
2022/12/20 05:27:32;;;;;;;;;0.33;0.33;;;;;17.30;40.30;100150.44;5054201;28;45786;-74
2022/12/20 05:29:57;;;;;;;;;1.00;1.00;;;;;17.35;40.24;100148.66;5037718;28;45353;-74
2022/12/20 05:32:23;;;;;;;;;1.00;1.00;;;;;17.34;40.12;100160.09;5041866;28;45642;-74
2022/12/20 05:34:48;;;;;;;;;0.00;0.00;;;;;17.28;40.48;100152.19;5058170;28;45420;-73
2022/12/20 05:37:14;;;;;;;;;0.67;0.67;;;;;17.29;40.38;100161.88;5047611;28;46151;-73
2022/12/20 05:39:40;;;;;;;;;1.00;1.00;;;;;17.29;40.25;100160.13;5054168;28;45481;-73
2022/12/20 05:42:05;;;;;;;;;1.00;1.00;;;;;17.35;40.09;100163.59;5042189;28;45640;-73
2022/12/20 05:44:31;;;;;;;;;1.00;1.00;;;;;17.35;40.08;100163.59;5055477;28;45575;-64
2022/12/20 05:46:56;;;;;;;;;1.00;1.00;;;;;17.35;40.23;100147.75;5057798;28;45920;-74
2022/12/20 05:49:22;;;;;;;;;1.00;1.00;;;;;17.36;40.11;100147.75;5055402;28;45616;-69
2022/12/20 05:51:47;;;;;;;;;2.00;1.67;;;;;17.20;40.03;100124.94;5052310;28;45601;-74
2022/12/20 05:54:13;;;;;;;;;2.33;1.00;;;;;17.33;39.96;100134.59;5057329;28;45491;-73
2022/12/20 05:56:39;;;;;;;;;0.00;0.00;;;;;17.44;39.76;100139.81;5057321;28;45550;-73
2022/12/20 05:59:04;;;;;;;;;0.00;0.00;;;;;17.34;40.14;100156.56;5071798;28;45482;-71
2022/12/20 06:01:29;;;;;;;;;1.67;1.00;;;;;17.09;40.12;100103.88;5055718;28;45560;-72
2022/12/20 06:03:55;;;;;;;;;1.00;1.00;;;;;17.36;40.00;100137.19;5055933;28;45498;-73
2022/12/20 06:06:21;;;;;;;;;1.00;1.00;;;;;17.33;40.16;100144.25;5057085;28;45501;-73
2022/12/20 06:08:47;;;;;;;;;1.00;1.00;;;;;17.35;40.35;100156.56;5054846;28;45560;-72
2022/12/20 06:11:13;;;;;;;;;1.33;1.00;;;;;17.29;40.27;100160.13;5055165;28;45422;-73
2022/12/20 06:13:38;;;;;;;;;1.00;1.00;;;;;17.23;40.57;100194.47;5055220;28;45529;-72
2022/12/20 06:16:04;;;;;;;;;2.00;2.00;;;;;17.17;40.83;100183.91;5054739;28;45631;-73
2022/12/20 06:18:29;;;;;;;;;0.67;0.67;;;;;17.15;40.99;100182.13;5056050;28;45588;-72
2022/12/20 06:20:55;;;;;;;;;1.67;1.00;;;;;17.21;40.82;100183.03;5055899;28;45492;-73
2022/12/20 06:23:20;;;;;;;;;1.00;1.00;;;;;17.16;40.79;100171.59;5056744;28;45453;-74
2022/12/20 06:25:47;;;;;;;;;1.00;0.00;;;;;17.06;40.93;100162.81;5056778;28;45503;-73
2022/12/20 06:28:13;;;;;;;;;2.00;1.00;;;;;17.28;40.83;100191.78;5054175;28;45567;-71
2022/12/20 06:30:39;;;;;;;;;0.00;0.00;;;;;17.24;40.98;100203.25;5055372;28;45578;-75
2022/12/20 06:33:04;;;;;;;;;1.00;1.00;;;;;17.19;41.13;100187.44;5053920;28;45511;-74
2022/12/20 06:35:30;;;;;;;;;1.67;1.67;;;;;17.18;41.32;100171.59;5055287;28;46087;-67
2022/12/20 06:37:56;;;;;;;;;1.00;1.00;;;;;17.23;41.04;100181.25;5054842;28;45623;-72
2022/12/20 06:40:22;;;;;;;;;1.00;1.00;;;;;17.22;41.10;100187.41;5053760;28;45382;-74
2022/12/20 06:42:49;;;;;;;;;0.67;0.67;;;;;17.26;41.02;100196.19;5055374;28;45293;-74
2022/12/20 06:45:15;;;;;;;;;2.00;1.00;;;;;17.15;41.41;100188.31;5055303;28;45530;-74
2022/12/20 06:47:40;;;;;;;;;1.00;1.00;;;;;17.16;41.50;100187.44;5056590;28;45607;-75
2022/12/20 06:50:07;;;;;;;;;2.33;1.00;;;;;17.03;41.79;100190.97;5054311;28;45386;-66
2022/12/20 06:52:33;;;;;;;;;1.00;1.00;;;;;17.10;41.70;100200.63;5051102;28;45794;-66
2022/12/20 06:54:58;;;;;;;;;1.00;1.00;;;;;17.15;41.72;100198.88;5045680;28;47383;-66
2022/12/20 06:57:24;;;;;;;;;1.00;1.00;;;;;17.17;41.78;100193.56;5056284;28;45467;-67
2022/12/20 06:59:49;;;;;;;;;2.00;1.00;;;;;17.10;41.75;100190.94;5056391;28;45598;-69
2022/12/20 07:02:15;;;;;;;;;0.00;0.00;;;;;17.14;42.00;100193.59;5041446;28;45433;-67
2022/12/20 07:04:41;;;;;;;;;1.00;1.00;;;;;17.16;41.83;100207.66;5048144;28;46091;-66
2022/12/20 07:07:07;;;;;;;;;4.33;3.67;;;;;17.16;41.68;100199.75;5061986;28;45546;-68
2022/12/20 07:09:32;;;;;;;;;5.67;5.00;;;;;17.18;41.63;100197.97;5044479;27;45715;-71
2022/12/20 07:11:58;;;;;;;;;3.00;3.00;;;;;17.20;41.63;100193.59;5053770;28;45508;-75
2022/12/20 07:14:24;;;;;;;;;1.33;1.00;;;;;17.22;41.47;100179.47;5044818;28;46086;-74
2022/12/20 07:16:49;;;;;;;;;1.00;1.00;;;;;17.16;41.35;100168.94;5044603;28;45468;-73
2022/12/20 07:19:15;;;;;;;;;1.33;1.33;;;;;17.29;41.54;100191.78;5052775;28;45619;-71
2022/12/20 07:21:42;;;;;;;;;2.00;1.33;;;;;17.28;41.49;100192.66;5056989;28;45437;-73
2022/12/20 07:24:08;;;;;;;;;2.33;2.00;;;;;17.23;41.66;100194.47;5056826;28;45479;-74
2022/12/20 07:26:34;;;;;;;;;2.00;2.00;;;;;17.20;41.51;100199.72;5056692;28;45475;-73
2022/12/20 07:28:59;;;;;;;;;2.00;2.00;;;;;17.19;41.68;100195.34;5041324;28;45773;-74
2022/12/20 07:31:25;;;;;;;;;3.67;3.00;;;;;17.17;41.54;100199.75;5053166;28;45652;-74
2022/12/20 07:33:50;;;;;;;;;2.67;2.67;;;;;17.19;41.66;100218.19;5043871;28;46236;-74
2022/12/20 07:36:16;;;;;;;;;2.00;2.00;;;;;17.17;41.76;100207.66;5056319;28;45374;-74
2022/12/20 07:38:42;;;;;;;;;3.00;3.00;;;;;17.07;41.33;100203.31;5055734;28;45518;-74
2022/12/20 07:41:13;;;;;;;;;4.33;4.33;;;;;16.94;41.84;100188.38;5052130;28;46330;-75
2022/12/20 07:43:38;;;;;;;;;2.00;2.00;;;;;17.13;42.01;100219.13;5044432;28;46076;-74
2022/12/20 07:46:05;;;;;;;;;1.00;1.00;;;;;17.15;41.99;100237.56;5044821;28;45362;-67
2022/12/20 07:48:32;;;;;;;;;2.00;2.00;;;;;17.15;41.91;100253.41;5052701;28;45565;-74
2022/12/20 07:51:09;;;;;;;;;2.00;2.00;;;;;17.14;42.12;100254.31;5055917;28;45565;-75
2022/12/20 07:53:39;;;;;;;;;2.00;2.00;;;;;17.01;42.19;100230.56;5045823;28;45477;-74
2022/12/20 07:56:07;;;;;;;;;1.67;1.67;;;;;17.00;41.71;100223.53;5045459;28;45638;-67
2022/12/20 07:58:36;;;;;;;;;2.00;2.00;;;;;17.16;41.71;100256.06;5038117;28;45426;-73
2022/12/20 08:01:03;;;;;;;;;2.00;2.00;;;;;17.06;42.01;100236.72;5056091;28;45375;-76
2022/12/20 08:03:39;;;;;;;;;1.00;1.00;;;;;17.18;41.96;100243.72;5055761;28;46446;-75
2022/12/20 08:06:06;;;;;;;;;2.67;2.67;;;;;17.18;41.97;100238.44;5040000;28;45499;-72
2022/12/20 08:08:36;;;;;;;;;2.00;1.67;;;;;17.21;41.99;100233.19;5056258;28;45583;-75
2022/12/20 08:11:03;;;;;;;;;2.00;2.00;;;;;17.25;41.97;100215.56;5056036;28;45389;-74
2022/12/20 08:13:30;;;;;;;;;1.00;1.00;;;;;17.27;41.55;100224.38;5055740;28;45741;-74
2022/12/20 08:15:56;;;;;;;;;3.00;3.00;;;;;17.21;41.63;100206.78;5055172;28;45294;-75
2022/12/20 08:18:21;;;;;;;;;1.67;1.67;;;;;17.24;41.47;100205.88;5056084;28;45518;-75
2022/12/20 08:20:47;;;;;;;;;3.00;2.00;;;;;17.19;41.67;100198.00;5056176;28;45506;-76
2022/12/20 08:23:12;;;;;;;;;4.00;4.00;;;;;17.24;41.66;100212.03;5055774;28;46015;-74
2022/12/20 08:25:38;;;;;;;;;2.00;2.00;;;;;17.38;41.24;100229.59;5054991;28;45298;-75
2022/12/20 08:28:03;;;;;;;;;1.00;1.00;;;;;17.33;41.32;100218.16;5056203;28;45522;-73
2022/12/20 08:30:29;;;;;;;;;1.00;1.00;;;;;17.33;41.30;100203.22;5056003;28;45450;-74
2022/12/20 08:32:55;;;;;;;;;0.00;0.00;;;;;17.40;41.20;100201.44;5055828;28;45566;-74
2022/12/20 08:35:21;;;;;;;;;3.00;3.00;;;;;17.38;41.32;100211.13;5054531;28;45481;-74
2022/12/20 08:37:47;;;;;;;;;4.00;3.33;;;;;17.29;41.40;100205.00;5054311;28;45533;-75
2022/12/20 08:40:13;;;;;;;;;2.00;2.00;;;;;17.35;40.82;100209.38;5055776;28;45463;-73
2022/12/20 08:42:39;;;;;;;;;1.67;1.67;;;;;17.42;41.00;100234.00;5055235;28;46148;-73
2022/12/20 08:45:05;;;;;;;;;1.00;1.00;;;;;17.41;40.94;100243.69;5055798;28;45414;-70
2022/12/20 08:47:30;;;;;;;;;1.33;1.00;;;;;17.40;40.64;100248.97;5054841;28;45426;-72
2022/12/20 08:49:56;;;;;;;;;1.00;1.00;;;;;17.41;40.99;100242.81;5053621;28;45520;-73
2022/12/20 08:52:21;;;;;;;;;2.00;1.00;;;;;17.46;40.82;100259.50;5055000;28;46235;-74
2022/12/20 08:54:47;;;;;;;;;4.00;3.33;;;;;15.83;41.03;99980.19;5053379;28;45430;-81
2022/12/20 08:57:12;;;;;;;;;2.00;2.00;;;;;17.33;41.20;100249.84;5052389;28;45543;-70
2022/12/20 08:59:38;;;;;;;;;2.00;1.00;;;;;17.37;41.10;100255.13;5043094;28;45307;-73
2022/12/20 09:02:04;;;;;;;;;2.00;2.00;;;;;17.42;40.82;100247.19;5055310;28;46195;-82
2022/12/20 09:04:30;;;;;;;;;2.33;2.33;;;;;17.37;40.95;100243.69;5040056;28;45770;-69
2022/12/20 09:06:55;;;;;;;;;1.00;1.00;;;;;17.34;41.15;100255.13;5058079;28;45496;-79
2022/12/20 09:09:21;;;;;;;;;2.00;2.00;;;;;17.44;40.93;100248.06;5056602;28;45413;-78
2022/12/20 09:11:46;;;;;;;;;1.00;1.00;;;;;17.45;41.01;100274.47;5056842;28;45601;-80
2022/12/20 09:14:12;;;;;;;;;2.00;1.67;;;;;17.41;40.70;100261.31;5056843;28;45484;-81
2022/12/20 09:16:37;;;;;;;;;1.00;1.00;;;;;17.48;40.50;100268.31;5058016;28;45500;-81
2022/12/20 09:19:04;;;;;;;;;2.00;1.00;;;;;17.31;40.59;100260.44;5053072;28;46333;-78
2022/12/20 09:21:29;;;;;;;;;1.33;1.33;;;;;17.38;40.97;100269.22;5057562;28;46208;-78
2022/12/20 09:23:56;;;;;;;;;2.00;2.00;;;;;17.38;41.04;100271.84;5041545;28;45537;-73
2022/12/20 09:26:24;;;;;;;;;1.00;1.00;;;;;17.44;40.80;100277.13;5058026;28;45539;-80
2022/12/20 09:28:50;;;;;;;;;2.33;2.33;;;;;17.29;41.26;100255.16;5057690;28;45462;-78
2022/12/20 09:31:18;;;;;;;;;2.33;2.33;;;;;17.44;40.93;100263.91;5046933;28;45643;-78
2022/12/20 09:33:45;;;;;;;;;2.00;1.33;;;;;17.45;41.26;100278.91;5038161;28;45580;-79
2022/12/20 09:36:12;;;;;;;;;3.00;3.00;;;;;17.47;41.20;100269.19;5053282;28;45426;-71
2022/12/20 09:38:38;;;;;;;;;2.67;2.67;;;;;17.54;41.10;100262.13;5053115;28;45543;-72
2022/12/20 09:41:06;;;;;;;;;1.00;1.00;;;;;17.64;40.88;100248.88;5058039;28;45567;-79
2022/12/20 09:43:33;;;;;;;;;2.00;2.00;;;;;17.54;40.85;100228.66;5057671;28;45440;-74
2022/12/20 09:46:01;;;;;;;;;1.00;0.00;;;;;17.65;40.69;100261.22;5058251;28;45568;-78
2022/12/20 09:48:34;;;;;;;;;1.00;1.00;;;;;17.63;41.10;100256.81;5058570;28;45356;-74
2022/12/20 09:51:08;;;;;;;;;2.00;2.00;;;;;17.66;41.26;100257.66;5058241;28;46133;-77
2022/12/20 09:53:50;;;;;;;;;1.00;1.00;;;;;17.70;40.83;100254.13;5058771;28;45521;-74
2022/12/20 09:56:56;;;;;;;;;1.00;1.00;;;;;17.73;40.70;100270.88;5059125;28;45401;-76
2022/12/20 09:59:23;;;;;;;;;2.00;2.00;;;;;17.80;40.74;100272.59;5016222;28;45466;-77
2022/12/20 10:01:49;;;;;;;;;1.00;1.00;;;;;17.77;40.90;100275.28;5049925;28;45437;-76
2022/12/20 10:04:22;;;;;;;;;1.67;1.33;;;;;17.68;41.23;100262.94;5058183;28;45464;-77
2022/12/20 10:07:07;;;;;;;;;1.00;1.00;;;;;17.78;41.13;100288.44;5058343;28;45477;-67
2022/12/20 10:09:54;;;;;;;;;2.00;2.00;;;;;17.78;40.98;100293.72;5058810;28;45354;-67
2022/12/20 10:12:41;;;;;;;;;2.00;2.00;;;;;17.78;41.15;100290.22;5058582;28;46009;-67
2022/12/20 10:15:23;;;;;;;;;1.00;1.00;;;;;17.82;41.31;100305.19;5058754;28;45355;-68
2022/12/20 10:17:58;;;;;;;;;1.00;1.00;;;;;17.89;40.80;100293.75;5057951;28;45212;-68
2022/12/20 10:20:55;;;;;;;;;1.67;1.67;;;;;17.90;40.80;100306.06;5058907;28;45484;-67
2022/12/20 10:23:23;;;;;;;;;2.00;2.00;;;;;17.87;41.27;100301.66;5058384;28;45407;-68
2022/12/20 10:25:55;;;;;;;;;0.67;0.67;;;;;17.89;41.21;100312.25;5058648;28;45371;-68
2022/12/20 10:28:27;;;;;;;;;1.00;1.00;;;;;17.98;40.87;100328.03;5058606;28;45368;-68
2022/12/20 10:30:52;;;;;;;;;5.33;4.00;;;;;17.91;41.28;100333.38;5058764;28;45215;-68
2022/12/20 10:33:21;;;;;;;;;0.33;0.33;;;;;17.91;41.42;100342.19;5058336;28;45902;-68
2022/12/20 10:35:49;;;;;;;;;1.33;1.00;;;;;17.90;41.57;100345.69;5058281;28;45481;-68
2022/12/20 10:38:17;;;;;;;;;1.33;1.33;;;;;17.98;41.53;100348.31;5058134;28;45451;-67
2022/12/20 10:40:54;;;;;;;;;2.00;1.67;;;;;18.06;41.01;100328.91;5058866;28;45483;-68
2022/12/20 10:43:23;;;;;;;;;2.00;1.67;;;;;18.03;41.49;100317.47;5058187;28;46354;-67
2022/12/20 10:45:55;;;;;;;;;3.33;1.67;;;;;18.08;41.45;100328.88;5058448;28;45414;-67
2022/12/20 10:48:32;;;;;;;;;4.00;2.67;;;;;18.01;41.49;100301.63;5058154;28;45408;-67
2022/12/20 10:51:19;;;;;;;;;2.33;1.67;;;;;18.10;41.40;100295.41;5058153;28;45310;-68
2022/12/20 10:53:54;;;;;;;;;2.67;2.67;;;;;18.07;41.75;100298.94;5057780;28;46121;-68
2022/12/20 10:56:28;;;;;;;;;2.33;2.33;;;;;18.09;41.44;100289.25;5058108;28;45351;-68
2022/12/20 10:58:57;;;;;;;;;1.67;1.67;;;;;18.09;41.60;100289.25;5058394;28;45301;-68
2022/12/20 11:01:30;;;;;;;;;1.67;1.67;;;;;18.09;41.51;100276.03;5058222;28;45255;-66
2022/12/20 11:04:20;;;;;;;;;2.33;2.33;;;;;18.04;41.64;100264.56;5057762;28;45262;-67
2022/12/20 11:06:45;;;;;;;;;0.67;0.67;;;;;18.07;41.35;100240.78;5057713;28;45706;-67
2022/12/20 11:09:20;;;;;;;;;1.33;1.33;;;;;17.91;41.56;100214.47;5058347;28;45339;-68
2022/12/20 11:12:10;;;;;;;;;2.00;1.67;;;;;17.96;41.68;100215.31;5057977;28;45416;-68
2022/12/20 11:14:37;;;;;;;;;1.00;0.67;;;;;18.02;41.00;100253.13;5057624;28;46255;-68
2022/12/20 11:17:20;;;;;;;;;1.00;1.00;;;;;18.02;41.06;100261.06;5056305;28;45292;-68
2022/12/20 11:19:58;;;;;;;;;2.00;1.33;;;;;18.03;41.64;100252.28;5057469;28;45296;-76
2022/12/20 11:22:33;;;;;;;;;0.33;0.33;;;;;18.07;41.53;100248.72;5057799;28;45368;-68
2022/12/20 11:25:24;;;;;;;;;3.67;3.67;;;;;18.08;41.57;100258.41;5057385;28;45453;-68
2022/12/20 11:28:22;;;;;;;;;2.33;2.33;;;;;18.06;42.04;100256.66;5056269;28;45324;-78
2022/12/20 11:31:14;;;;;;;;;1.67;1.67;;;;;17.95;42.10;100251.44;5045215;28;46455;-68
2022/12/20 11:34:08;;;;;;;;;1.00;1.00;;;;;17.94;42.33;100231.16;5057577;28;45239;-67
2022/12/20 11:36:57;;;;;;;;;1.67;0.67;;;;;17.97;42.25;100217.06;5057090;28;46281;-78
2022/12/20 11:39:37;;;;;;;;;0.67;0.67;;;;;17.95;42.37;100213.56;5057110;28;45205;-77
2022/12/20 11:42:38;;;;;;;;;1.33;1.33;;;;;17.91;42.56;100199.47;5057180;28;45405;-68
2022/12/20 11:45:26;;;;;;;;;3.33;2.67;;;;;17.83;42.46;100194.22;5041096;28;45320;-68
2022/12/20 11:48:18;;;;;;;;;1.33;1.33;;;;;17.79;43.04;100202.16;5056815;28;46039;-70